Volgo-balt 229 — UHZF — position and weather

sailwx.info

Track history (hours):
 
Tides and Currents Weather Stations Pressure Air Temp Water Temp Dewpoint Dewpoint Depression Visibility Wind Speed Wind Dir Waves Ship Positions

Volgo-balt 229

Last reported at 2017-Feb-17 19:22 UTC. Time now 2017-Feb-24 17:26 UTC.
Position N 55°04' E 015°38'.

Length 113 m; draft 2.7 m.

Type: Ship. MMSI: 273336300.

Date/timePositionNaut miles runAvg speedWind from/ knotsBaromVisibWave heightAir tempDewpointWater temp
2017-Feb-17 19:22N 55°04' E 015°38'16 8.7
2017-Feb-17 17:33N 54°57' E 015°14'9 8.6
2017-Feb-17 16:33N 54°58' E 014°59'9 8.9
2017-Feb-17 15:33N 54°60' E 014°44'6 6.0
2017-Feb-17 14:33N 55°06' E 014°42'0 0.1
2017-Feb-17 13:33N 55°06' E 014°42'0 0.0
2017-Feb-17 12:33N 55°06' E 014°42'0 0.0
2017-Feb-17 11:33N 55°06' E 014°42'0 0.0
2017-Feb-17 10:33N 55°06' E 014°42'0 0.0
2017-Feb-17 09:33N 55°06' E 014°42'0 0.0
2017-Feb-17 08:33N 55°06' E 014°42'0 0.0
2017-Feb-17 07:33N 55°06' E 014°42'0 0.0
2017-Feb-17 06:33N 55°06' E 014°42'0 0.0
2017-Feb-17 05:33N 55°06' E 014°42'0 0.0
2017-Feb-17 04:33N 55°06' E 014°42'0 0.0
2017-Feb-17 03:33N 55°06' E 014°42'0 0.0
2017-Feb-17 02:33N 55°06' E 014°42'0 0.0
2017-Feb-17 01:33N 55°06' E 014°42'0 0.0
2017-Feb-17 00:33N 55°06' E 014°42'0 0.0
2017-Feb-16 23:33N 55°06' E 014°42'0 0.0
2017-Feb-16 22:33N 55°06' E 014°42'0 0.0
2017-Feb-16 21:33N 55°06' E 014°42'0 0.0
2017-Feb-16 20:33N 55°06' E 014°42'0 0.0
2017-Feb-16 19:33N 55°06' E 014°42'0 0.0
2017-Feb-16 18:33N 55°06' E 014°42'0 0.0
2017-Feb-16 17:33N 55°06' E 014°42'0 0.0
2017-Feb-16 16:33N 55°06' E 014°42'0 0.0
2017-Feb-16 15:33N 55°06' E 014°42'0 0.0
2017-Feb-16 14:33N 55°06' E 014°42'0 0.0
2017-Feb-16 13:33N 55°06' E 014°42'0 0.0
2017-Feb-16 12:33N 55°06' E 014°42'0 0.0
2017-Feb-16 11:33N 55°06' E 014°42'0 0.0
2017-Feb-16 10:33N 55°06' E 014°42'0 0.0
2017-Feb-16 09:33N 55°06' E 014°42'0 0.1
2017-Feb-16 08:33N 55°06' E 014°42'0 0.0
2017-Feb-16 07:33N 55°06' E 014°42'0 0.0
2017-Feb-16 06:33N 55°06' E 014°42'0 0.0
2017-Feb-16 05:33N 55°06' E 014°42'0 0.0
2017-Feb-16 04:33N 55°06' E 014°42'2 2.2
2017-Feb-16 03:33N 55°04' E 014°39'7 6.9
2017-Feb-16 02:33N 54°59' E 014°47'8 7.8
2017-Feb-16 01:33N 54°57' E 015°00'7 7.3
2017-Feb-16 00:33N 54°56' E 015°13'24 7.6
2017-Feb-15 21:26N 55°15' E 015°37'18 7.7
2017-Feb-15 19:05N 55°31' E 015°53'6 8.0
2017-Feb-15 18:20N 55°36' E 015°59'7 8.3
2017-Feb-15 17:33N 55°41' E 016°05'  
2017-Feb-09 06:05N 55°32' E 015°12'5 7.1
2017-Feb-09 05:26N 55°30' E 015°05'6 6.8
2017-Feb-09 04:33N 55°27' E 014°55'6 6.4
2017-Feb-09 03:33N 55°24' E 014°46'6 6.2
2017-Feb-09 02:33N 55°21' E 014°37'7 6.8
2017-Feb-09 01:33N 55°16' E 014°28'7 7.0
2017-Feb-09 00:33N 55°11' E 014°20'6 6.2
2017-Feb-08 23:33N 55°10' E 014°09'6 6.2
2017-Feb-08 22:32N 55°11' E 013°58'32 6.4
2017-Feb-08 17:33N 55°14' E 013°02'7 6.6
2017-Feb-08 16:34N 55°15' E 012°51'7 6.9
2017-Feb-08 15:34N 55°17' E 012°40'6 5.8
2017-Feb-08 14:34N 55°23' E 012°38'7 6.5
2017-Feb-08 13:34N 55°29' E 012°41'6 6.2
2017-Feb-08 12:33N 55°35' E 012°42'5 5.3
2017-Feb-08 11:34N 55°41' E 012°41'6 5.9
2017-Feb-08 10:33N 55°47' E 012°41'6 6.2
2017-Feb-08 09:33N 55°53' E 012°39'6 5.7
2017-Feb-08 08:33N 55°58' E 012°40'6 5.5
2017-Feb-08 07:33N 56°04' E 012°38'4 4.3
2017-Feb-08 06:34N 56°06' E 012°32'5 4.5
2017-Feb-08 05:33N 56°09' E 012°25'5 5.4
2017-Feb-08 04:33N 56°11' E 012°16'43 5.7
2017-Feb-07 21:04N 56°06' E 010°59'4 6.1
2017-Feb-07 20:22N 56°04' E 010°53'5 5.8
2017-Feb-07 19:33N 56°03' E 010°44'  
Track history (hours):
 
Tides and Currents Weather Stations Pressure Air Temp Water Temp Dewpoint Dewpoint Depression Visibility Wind Speed Wind Dir Waves Ship Positions

Volgo-balt 229

Last reported at 2017-Feb-17 19:22 UTC. Time now 2017-Feb-24 17:26 UTC.
Position N 55°04' E 015°38'.

Length 113 m; draft 2.7 m.

Type: Ship. MMSI: 273336300.

Date/timePositionNaut miles runAvg speedWind from/ knotsBaromVisibWave heightAir tempDewpointWater temp
2017-Feb-17 19:22N 55°04' E 015°38'16 8.7
2017-Feb-17 17:33N 54°57' E 015°14'9 8.6
2017-Feb-17 16:33N 54°58' E 014°59'9 8.9
2017-Feb-17 15:33N 54°60' E 014°44'6 6.0
2017-Feb-17 14:33N 55°06' E 014°42'0 0.1
2017-Feb-17 13:33N 55°06' E 014°42'0 0.0
2017-Feb-17 12:33N 55°06' E 014°42'0 0.0
2017-Feb-17 11:33N 55°06' E 014°42'0 0.0
2017-Feb-17 10:33N 55°06' E 014°42'0 0.0
2017-Feb-17 09:33N 55°06' E 014°42'0 0.0
2017-Feb-17 08:33N 55°06' E 014°42'0 0.0
2017-Feb-17 07:33N 55°06' E 014°42'0 0.0
2017-Feb-17 06:33N 55°06' E 014°42'0 0.0
2017-Feb-17 05:33N 55°06' E 014°42'0 0.0
2017-Feb-17 04:33N 55°06' E 014°42'0 0.0
2017-Feb-17 03:33N 55°06' E 014°42'0 0.0
2017-Feb-17 02:33N 55°06' E 014°42'0 0.0
2017-Feb-17 01:33N 55°06' E 014°42'0 0.0
2017-Feb-17 00:33N 55°06' E 014°42'0 0.0
2017-Feb-16 23:33N 55°06' E 014°42'0 0.0
2017-Feb-16 22:33N 55°06' E 014°42'0 0.0
2017-Feb-16 21:33N 55°06' E 014°42'0 0.0
2017-Feb-16 20:33N 55°06' E 014°42'0 0.0
2017-Feb-16 19:33N 55°06' E 014°42'0 0.0
2017-Feb-16 18:33N 55°06' E 014°42'0 0.0
2017-Feb-16 17:33N 55°06' E 014°42'0 0.0
2017-Feb-16 16:33N 55°06' E 014°42'0 0.0
2017-Feb-16 15:33N 55°06' E 014°42'0 0.0
2017-Feb-16 14:33N 55°06' E 014°42'0 0.0
2017-Feb-16 13:33N 55°06' E 014°42'0 0.0
2017-Feb-16 12:33N 55°06' E 014°42'0 0.0
2017-Feb-16 11:33N 55°06' E 014°42'0 0.0
2017-Feb-16 10:33N 55°06' E 014°42'0 0.0
2017-Feb-16 09:33N 55°06' E 014°42'0 0.1
2017-Feb-16 08:33N 55°06' E 014°42'0 0.0
2017-Feb-16 07:33N 55°06' E 014°42'0 0.0
2017-Feb-16 06:33N 55°06' E 014°42'0 0.0
2017-Feb-16 05:33N 55°06' E 014°42'0 0.0
2017-Feb-16 04:33N 55°06' E 014°42'2 2.2
2017-Feb-16 03:33N 55°04' E 014°39'7 6.9
2017-Feb-16 02:33N 54°59' E 014°47'8 7.8
2017-Feb-16 01:33N 54°57' E 015°00'7 7.3
2017-Feb-16 00:33N 54°56' E 015°13'24 7.6
2017-Feb-15 21:26N 55°15' E 015°37'18 7.7
2017-Feb-15 19:05N 55°31' E 015°53'6 8.0
2017-Feb-15 18:20N 55°36' E 015°59'7 8.3
2017-Feb-15 17:33N 55°41' E 016°05'  
2017-Feb-09 06:05N 55°32' E 015°12'5 7.1
2017-Feb-09 05:26N 55°30' E 015°05'6 6.8
2017-Feb-09 04:33N 55°27' E 014°55'6 6.4
2017-Feb-09 03:33N 55°24' E 014°46'6 6.2
2017-Feb-09 02:33N 55°21' E 014°37'7 6.8
2017-Feb-09 01:33N 55°16' E 014°28'7 7.0
2017-Feb-09 00:33N 55°11' E 014°20'6 6.2
2017-Feb-08 23:33N 55°10' E 014°09'6 6.2
2017-Feb-08 22:32N 55°11' E 013°58'32 6.4
2017-Feb-08 17:33N 55°14' E 013°02'7 6.6
2017-Feb-08 16:34N 55°15' E 012°51'7 6.9
2017-Feb-08 15:34N 55°17' E 012°40'6 5.8
2017-Feb-08 14:34N 55°23' E 012°38'7 6.5
2017-Feb-08 13:34N 55°29' E 012°41'6 6.2
2017-Feb-08 12:33N 55°35' E 012°42'5 5.3
2017-Feb-08 11:34N 55°41' E 012°41'6 5.9
2017-Feb-08 10:33N 55°47' E 012°41'6 6.2
2017-Feb-08 09:33N 55°53' E 012°39'6 5.7
2017-Feb-08 08:33N 55°58' E 012°40'6 5.5
2017-Feb-08 07:33N 56°04' E 012°38'4 4.3
2017-Feb-08 06:34N 56°06' E 012°32'5 4.5
2017-Feb-08 05:33N 56°09' E 012°25'5 5.4
2017-Feb-08 04:33N 56°11' E 012°16'43 5.7
2017-Feb-07 21:04N 56°06' E 010°59'4 6.1
2017-Feb-07 20:22N 56°04' E 010°53'5 5.8
2017-Feb-07 19:33N 56°03' E 010°44'  

Dump ship's entire track history